METAR Data
IDs: Format: Raw Decoded Include TAF

Data at: 0229 UTC 29 May 2022

KASW 290215Z AUTO 00000KT 10SM CLR 17/12 A2991 RMK AO2